sensor_id;sensor_type;location;lat;lon;timestamp;P1;durP1;ratioP1;P2;durP2;ratioP2
4278;SDS011;2153;47.744;10.580;2023-06-22T00:02:00;23.60;;;8.50;;
4278;SDS011;2153;47.744;10.580;2023-06-22T00:04:26;27.97;;;9.27;;
4278;SDS011;2153;47.744;10.580;2023-06-22T00:06:53;27.17;;;9.00;;
4278;SDS011;2153;47.744;10.580;2023-06-22T00:09:20;28.17;;;10.23;;
4278;SDS011;2153;47.744;10.580;2023-06-22T00:11:48;25.33;;;7.80;;
4278;SDS011;2153;47.744;10.580;2023-06-22T00:14:14;29.47;;;8.00;;
4278;SDS011;2153;47.744;10.580;2023-06-22T00:16:41;34.43;;;8.77;;
4278;SDS011;2153;47.744;10.580;2023-06-22T00:19:08;24.40;;;8.13;;
4278;SDS011;2153;47.744;10.580;2023-06-22T00:21:36;26.53;;;8.17;;
4278;SDS011;2153;47.744;10.580;2023-06-22T00:24:03;28.13;;;9.10;;
4278;SDS011;2153;47.744;10.580;2023-06-22T00:26:31;25.57;;;8.70;;
4278;SDS011;2153;47.744;10.580;2023-06-22T00:28:59;34.70;;;8.23;;
4278;SDS011;2153;47.744;10.580;2023-06-22T00:31:25;21.67;;;7.97;;
4278;SDS011;2153;47.744;10.580;2023-06-22T00:33:52;24.33;;;8.17;;
4278;SDS011;2153;47.744;10.580;2023-06-22T00:36:19;29.53;;;9.17;;
4278;SDS011;2153;47.744;10.580;2023-06-22T00:38:45;31.70;;;8.50;;
4278;SDS011;2153;47.744;10.580;2023-06-22T00:41:12;35.07;;;9.13;;
4278;SDS011;2153;47.744;10.580;2023-06-22T00:43:39;22.07;;;8.77;;
4278;SDS011;2153;47.744;10.580;2023-06-22T00:46:08;25.10;;;8.47;;
4278;SDS011;2153;47.744;10.580;2023-06-22T00:48:35;24.80;;;8.70;;
4278;SDS011;2153;47.744;10.580;2023-06-22T00:51:02;24.90;;;9.37;;
4278;SDS011;2153;47.744;10.580;2023-06-22T00:53:29;33.33;;;9.10;;
4278;SDS011;2153;47.744;10.580;2023-06-22T00:55:59;23.20;;;7.00;;
4278;SDS011;2153;47.744;10.580;2023-06-22T00:58:28;33.07;;;8.30;;
4278;SDS011;2153;47.744;10.580;2023-06-22T01:00:55;25.37;;;8.50;;
4278;SDS011;2153;47.744;10.580;2023-06-22T01:03:23;34.23;;;9.93;;
4278;SDS011;2153;47.744;10.580;2023-06-22T01:05:50;24.07;;;8.40;;
4278;SDS011;2153;47.744;10.580;2023-06-22T01:08:23;23.97;;;7.90;;
4278;SDS011;2153;47.744;10.580;2023-06-22T01:10:57;33.87;;;8.70;;
4278;SDS011;2153;47.744;10.580;2023-06-22T01:13:32;35.40;;;9.50;;
4278;SDS011;2153;47.744;10.580;2023-06-22T01:16:05;26.53;;;7.90;;
4278;SDS011;2153;47.744;10.580;2023-06-22T01:18:38;26.30;;;8.67;;
4278;SDS011;2153;47.744;10.580;2023-06-22T01:21:08;31.73;;;9.03;;
4278;SDS011;2153;47.744;10.580;2023-06-22T01:23:44;22.53;;;8.77;;
4278;SDS011;2153;47.744;10.580;2023-06-22T01:26:20;27.73;;;8.30;;
4278;SDS011;2153;47.744;10.580;2023-06-22T01:28:56;25.90;;;8.83;;
4278;SDS011;2153;47.744;10.580;2023-06-22T01:31:25;33.50;;;9.00;;
4278;SDS011;2153;47.744;10.580;2023-06-22T01:33:55;28.60;;;8.50;;
4278;SDS011;2153;47.744;10.580;2023-06-22T01:36:25;26.40;;;8.90;;
4278;SDS011;2153;47.744;10.580;2023-06-22T01:38:52;23.30;;;9.07;;
4278;SDS011;2153;47.744;10.580;2023-06-22T01:41:20;35.30;;;9.80;;
4278;SDS011;2153;47.744;10.580;2023-06-22T01:43:48;27.40;;;8.77;;
4278;SDS011;2153;47.744;10.580;2023-06-22T01:46:17;20.77;;;8.40;;
4278;SDS011;2153;47.744;10.580;2023-06-22T01:48:45;32.50;;;9.00;;
4278;SDS011;2153;47.744;10.580;2023-06-22T01:51:12;22.77;;;8.50;;
4278;SDS011;2153;47.744;10.580;2023-06-22T01:53:39;28.63;;;9.30;;
4278;SDS011;2153;47.744;10.580;2023-06-22T01:56:07;24.20;;;8.93;;
4278;SDS011;2153;47.744;10.580;2023-06-22T01:58:34;29.57;;;7.60;;
4278;SDS011;2153;47.744;10.580;2023-06-22T02:01:09;24.90;;;8.70;;
4278;SDS011;2153;47.744;10.580;2023-06-22T02:03:38;24.67;;;10.07;;
4278;SDS011;2153;47.744;10.580;2023-06-22T02:06:10;27.73;;;9.40;;
4278;SDS011;2153;47.744;10.580;2023-06-22T02:08:44;28.73;;;10.20;;
4278;SDS011;2153;47.744;10.580;2023-06-22T02:11:15;24.03;;;9.33;;
4278;SDS011;2153;47.744;10.580;2023-06-22T02:13:44;28.50;;;9.40;;
4278;SDS011;2153;47.744;10.580;2023-06-22T02:16:11;29.83;;;9.37;;
4278;SDS011;2153;47.744;10.580;2023-06-22T02:18:40;34.90;;;9.37;;
4278;SDS011;2153;47.744;10.580;2023-06-22T02:21:12;29.27;;;9.50;;
4278;SDS011;2153;47.744;10.580;2023-06-22T02:23:39;29.70;;;9.70;;
4278;SDS011;2153;47.744;10.580;2023-06-22T02:26:05;26.50;;;8.87;;
4278;SDS011;2153;47.744;10.580;2023-06-22T02:28:32;38.73;;;9.33;;
4278;SDS011;2153;47.744;10.580;2023-06-22T02:30:59;25.93;;;9.20;;
4278;SDS011;2153;47.744;10.580;2023-06-22T02:33:25;26.03;;;9.63;;
4278;SDS011;2153;47.744;10.580;2023-06-22T02:35:53;30.80;;;8.80;;
4278;SDS011;2153;47.744;10.580;2023-06-22T02:38:20;27.83;;;10.07;;
4278;SDS011;2153;47.744;10.580;2023-06-22T02:40:49;36.70;;;9.53;;
4278;SDS011;2153;47.744;10.580;2023-06-22T02:43:16;28.50;;;9.30;;
4278;SDS011;2153;47.744;10.580;2023-06-22T02:45:42;22.77;;;8.10;;
4278;SDS011;2153;47.744;10.580;2023-06-22T02:48:09;35.07;;;10.43;;
4278;SDS011;2153;47.744;10.580;2023-06-22T02:50:36;25.67;;;8.80;;
4278;SDS011;2153;47.744;10.580;2023-06-22T02:53:04;22.83;;;8.30;;
4278;SDS011;2153;47.744;10.580;2023-06-22T02:55:31;30.60;;;9.80;;
4278;SDS011;2153;47.744;10.580;2023-06-22T02:57:57;31.57;;;9.23;;
4278;SDS011;2153;47.744;10.580;2023-06-22T03:00:24;28.33;;;10.10;;
4278;SDS011;2153;47.744;10.580;2023-06-22T03:02:55;31.23;;;8.63;;
4278;SDS011;2153;47.744;10.580;2023-06-22T03:05:22;26.77;;;9.77;;
4278;SDS011;2153;47.744;10.580;2023-06-22T03:07:49;25.33;;;8.80;;
4278;SDS011;2153;47.744;10.580;2023-06-22T03:10:17;23.77;;;9.10;;
4278;SDS011;2153;47.744;10.580;2023-06-22T03:12:44;26.33;;;9.40;;
4278;SDS011;2153;47.744;10.580;2023-06-22T03:15:11;26.43;;;8.50;;
4278;SDS011;2153;47.744;10.580;2023-06-22T03:17:39;25.50;;;8.40;;
4278;SDS011;2153;47.744;10.580;2023-06-22T03:20:06;24.97;;;9.13;;
4278;SDS011;2153;47.744;10.580;2023-06-22T03:22:35;25.07;;;8.83;;
4278;SDS011;2153;47.744;10.580;2023-06-22T03:25:02;23.70;;;8.60;;
4278;SDS011;2153;47.744;10.580;2023-06-22T03:27:30;26.70;;;10.27;;
4278;SDS011;2153;47.744;10.580;2023-06-22T03:29:57;27.83;;;10.03;;
4278;SDS011;2153;47.744;10.580;2023-06-22T03:32:24;23.70;;;9.10;;
4278;SDS011;2153;47.744;10.580;2023-06-22T03:34:53;28.53;;;8.90;;
4278;SDS011;2153;47.744;10.580;2023-06-22T03:37:19;25.33;;;8.60;;
4278;SDS011;2153;47.744;10.580;2023-06-22T03:39:46;31.83;;;10.20;;
4278;SDS011;2153;47.744;10.580;2023-06-22T03:42:12;25.40;;;9.00;;
4278;SDS011;2153;47.744;10.580;2023-06-22T03:44:40;27.90;;;8.60;;
4278;SDS011;2153;47.744;10.580;2023-06-22T03:47:07;25.70;;;8.87;;
4278;SDS011;2153;47.744;10.580;2023-06-22T03:49:34;27.47;;;8.70;;
4278;SDS011;2153;47.744;10.580;2023-06-22T03:52:01;28.03;;;9.60;;
4278;SDS011;2153;47.744;10.580;2023-06-22T03:54:28;27.40;;;9.43;;
4278;SDS011;2153;47.744;10.580;2023-06-22T03:56:56;30.27;;;9.80;;
4278;SDS011;2153;47.744;10.580;2023-06-22T03:59:24;26.13;;;9.23;;
4278;SDS011;2153;47.744;10.580;2023-06-22T04:01:52;24.73;;;9.50;;
4278;SDS011;2153;47.744;10.580;2023-06-22T04:04:18;27.53;;;9.73;;
4278;SDS011;2153;47.744;10.580;2023-06-22T04:06:45;35.00;;;9.20;;
4278;SDS011;2153;47.744;10.580;2023-06-22T04:09:12;22.87;;;9.07;;
4278;SDS011;2153;47.744;10.580;2023-06-22T04:11:38;29.27;;;10.70;;
4278;SDS011;2153;47.744;10.580;2023-06-22T04:14:05;27.23;;;10.00;;
4278;SDS011;2153;47.744;10.580;2023-06-22T04:16:32;22.30;;;9.33;;
4278;SDS011;2153;47.744;10.580;2023-06-22T04:19:00;28.90;;;10.73;;
4278;SDS011;2153;47.744;10.580;2023-06-22T04:21:27;30.47;;;10.33;;
4278;SDS011;2153;47.744;10.580;2023-06-22T04:23:53;24.23;;;9.00;;
4278;SDS011;2153;47.744;10.580;2023-06-22T04:26:20;38.17;;;10.23;;
4278;SDS011;2153;47.744;10.580;2023-06-22T04:28:47;27.77;;;9.37;;
4278;SDS011;2153;47.744;10.580;2023-06-22T04:31:16;24.37;;;9.57;;
4278;SDS011;2153;47.744;10.580;2023-06-22T04:33:43;28.00;;;9.35;;
4278;SDS011;2153;47.744;10.580;2023-06-22T04:36:11;27.30;;;9.50;;
4278;SDS011;2153;47.744;10.580;2023-06-22T04:38:38;33.73;;;12.00;;
4278;SDS011;2153;47.744;10.580;2023-06-22T04:41:05;31.00;;;9.40;;
4278;SDS011;2153;47.744;10.580;2023-06-22T04:43:33;25.90;;;9.47;;
4278;SDS011;2153;47.744;10.580;2023-06-22T04:46:00;29.33;;;9.17;;
4278;SDS011;2153;47.744;10.580;2023-06-22T04:48:28;26.10;;;9.53;;
4278;SDS011;2153;47.744;10.580;2023-06-22T04:50:57;22.90;;;8.83;;
4278;SDS011;2153;47.744;10.580;2023-06-22T04:53:30;21.83;;;9.10;;
4278;SDS011;2153;47.744;10.580;2023-06-22T04:55:57;26.25;;;10.00;;
4278;SDS011;2153;47.744;10.580;2023-06-22T04:58:24;29.23;;;10.30;;
4278;SDS011;2153;47.744;10.580;2023-06-22T05:00:53;25.53;;;9.70;;
4278;SDS011;2153;47.744;10.580;2023-06-22T05:03:22;33.03;;;10.30;;
4278;SDS011;2153;47.744;10.580;2023-06-22T05:05:50;29.30;;;9.43;;
4278;SDS011;2153;47.744;10.580;2023-06-22T05:08:17;24.20;;;9.57;;
4278;SDS011;2153;47.744;10.580;2023-06-22T05:10:45;28.93;;;10.60;;
4278;SDS011;2153;47.744;10.580;2023-06-22T05:13:12;22.97;;;10.00;;
4278;SDS011;2153;47.744;10.580;2023-06-22T05:15:38;26.40;;;9.50;;
4278;SDS011;2153;47.744;10.580;2023-06-22T05:18:05;26.95;;;10.75;;
4278;SDS011;2153;47.744;10.580;2023-06-22T05:20:32;23.73;;;9.73;;
4278;SDS011;2153;47.744;10.580;2023-06-22T05:23:01;29.80;;;10.17;;
4278;SDS011;2153;47.744;10.580;2023-06-22T05:25:27;29.00;;;10.03;;
4278;SDS011;2153;47.744;10.580;2023-06-22T05:27:58;30.70;;;10.13;;
4278;SDS011;2153;47.744;10.580;2023-06-22T05:30:25;23.77;;;9.27;;
4278;SDS011;2153;47.744;10.580;2023-06-22T05:32:53;31.50;;;12.40;;
4278;SDS011;2153;47.744;10.580;2023-06-22T05:35:19;32.07;;;9.40;;
4278;SDS011;2153;47.744;10.580;2023-06-22T05:37:46;32.33;;;11.70;;
4278;SDS011;2153;47.744;10.580;2023-06-22T05:40:13;35.03;;;11.80;;
4278;SDS011;2153;47.744;10.580;2023-06-22T05:42:39;37.40;;;11.93;;
4278;SDS011;2153;47.744;10.580;2023-06-22T05:45:08;39.77;;;12.17;;
4278;SDS011;2153;47.744;10.580;2023-06-22T05:47:35;33.83;;;11.90;;
4278;SDS011;2153;47.744;10.580;2023-06-22T05:50:02;29.70;;;11.73;;
4278;SDS011;2153;47.744;10.580;2023-06-22T05:52:31;28.53;;;10.50;;
4278;SDS011;2153;47.744;10.580;2023-06-22T05:54:58;31.23;;;10.67;;
4278;SDS011;2153;47.744;10.580;2023-06-22T05:57:25;32.37;;;10.63;;
4278;SDS011;2153;47.744;10.580;2023-06-22T05:59:51;24.13;;;10.37;;
4278;SDS011;2153;47.744;10.580;2023-06-22T06:02:20;32.80;;;11.47;;
4278;SDS011;2153;47.744;10.580;2023-06-22T06:04:46;25.70;;;11.40;;
4278;SDS011;2153;47.744;10.580;2023-06-22T06:07:16;45.83;;;11.17;;
4278;SDS011;2153;47.744;10.580;2023-06-22T06:09:42;36.67;;;11.30;;
4278;SDS011;2153;47.744;10.580;2023-06-22T06:12:09;26.67;;;9.80;;
4278;SDS011;2153;47.744;10.580;2023-06-22T06:14:36;31.67;;;10.90;;
4278;SDS011;2153;47.744;10.580;2023-06-22T06:17:02;42.90;;;11.67;;
4278;SDS011;2153;47.744;10.580;2023-06-22T06:19:31;32.03;;;11.30;;
4278;SDS011;2153;47.744;10.580;2023-06-22T06:21:57;31.43;;;10.37;;
4278;SDS011;2153;47.744;10.580;2023-06-22T06:24:24;28.60;;;10.27;;
4278;SDS011;2153;47.744;10.580;2023-06-22T06:26:50;28.23;;;9.53;;
4278;SDS011;2153;47.744;10.580;2023-06-22T06:29:17;36.17;;;10.27;;
4278;SDS011;2153;47.744;10.580;2023-06-22T06:31:44;41.03;;;10.93;;
4278;SDS011;2153;47.744;10.580;2023-06-22T06:34:10;30.43;;;9.30;;
4278;SDS011;2153;47.744;10.580;2023-06-22T06:36:38;42.03;;;11.57;;
4278;SDS011;2153;47.744;10.580;2023-06-22T06:39:05;26.97;;;10.00;;
4278;SDS011;2153;47.744;10.580;2023-06-22T06:41:31;30.23;;;9.67;;
4278;SDS011;2153;47.744;10.580;2023-06-22T06:43:58;33.90;;;9.67;;
4278;SDS011;2153;47.744;10.580;2023-06-22T06:46:25;33.90;;;9.57;;
4278;SDS011;2153;47.744;10.580;2023-06-22T06:48:52;36.83;;;12.00;;
4278;SDS011;2153;47.744;10.580;2023-06-22T06:51:18;30.53;;;9.70;;
4278;SDS011;2153;47.744;10.580;2023-06-22T06:53:46;33.03;;;10.43;;
4278;SDS011;2153;47.744;10.580;2023-06-22T06:56:13;24.40;;;8.93;;
4278;SDS011;2153;47.744;10.580;2023-06-22T06:58:40;33.83;;;9.70;;
4278;SDS011;2153;47.744;10.580;2023-06-22T07:01:10;30.50;;;9.70;;
4278;SDS011;2153;47.744;10.580;2023-06-22T07:03:36;26.80;;;9.17;;
4278;SDS011;2153;47.744;10.580;2023-06-22T07:06:03;30.53;;;9.67;;
4278;SDS011;2153;47.744;10.580;2023-06-22T07:08:30;32.30;;;10.80;;
4278;SDS011;2153;47.744;10.580;2023-06-22T07:10:58;46.93;;;11.13;;
4278;SDS011;2153;47.744;10.580;2023-06-22T07:13:25;33.03;;;9.60;;
4278;SDS011;2153;47.744;10.580;2023-06-22T07:15:52;39.00;;;10.40;;
4278;SDS011;2153;47.744;10.580;2023-06-22T07:18:19;28.90;;;9.97;;
4278;SDS011;2153;47.744;10.580;2023-06-22T07:20:45;25.40;;;8.63;;
4278;SDS011;2153;47.744;10.580;2023-06-22T07:23:12;36.93;;;9.87;;
4278;SDS011;2153;47.744;10.580;2023-06-22T07:25:39;27.57;;;9.50;;
4278;SDS011;2153;47.744;10.580;2023-06-22T07:28:07;33.37;;;8.40;;
4278;SDS011;2153;47.744;10.580;2023-06-22T07:30:34;25.60;;;8.27;;
4278;SDS011;2153;47.744;10.580;2023-06-22T07:33:01;28.70;;;8.73;;
4278;SDS011;2153;47.744;10.580;2023-06-22T07:35:29;23.23;;;8.30;;
4278;SDS011;2153;47.744;10.580;2023-06-22T07:37:56;28.57;;;8.13;;
4278;SDS011;2153;47.744;10.580;2023-06-22T07:40:22;24.37;;;8.20;;
4278;SDS011;2153;47.744;10.580;2023-06-22T07:42:49;27.40;;;8.70;;
4278;SDS011;2153;47.744;10.580;2023-06-22T07:45:18;30.47;;;8.33;;
4278;SDS011;2153;47.744;10.580;2023-06-22T07:47:45;35.10;;;12.27;;
4278;SDS011;2153;47.744;10.580;2023-06-22T07:50:11;28.20;;;9.27;;
4278;SDS011;2153;47.744;10.580;2023-06-22T07:52:38;25.57;;;7.90;;
4278;SDS011;2153;47.744;10.580;2023-06-22T07:55:05;27.43;;;9.20;;
4278;SDS011;2153;47.744;10.580;2023-06-22T07:57:32;32.50;;;8.30;;
4278;SDS011;2153;47.744;10.580;2023-06-22T07:59:59;29.30;;;8.07;;
4278;SDS011;2153;47.744;10.580;2023-06-22T08:02:27;24.70;;;9.00;;
4278;SDS011;2153;47.744;10.580;2023-06-22T08:04:54;24.33;;;8.50;;
4278;SDS011;2153;47.744;10.580;2023-06-22T08:07:20;33.73;;;8.47;;
4278;SDS011;2153;47.744;10.580;2023-06-22T08:09:47;19.77;;;7.60;;
4278;SDS011;2153;47.744;10.580;2023-06-22T08:12:14;30.93;;;7.57;;
4278;SDS011;2153;47.744;10.580;2023-06-22T08:14:42;27.80;;;8.03;;
4278;SDS011;2153;47.744;10.580;2023-06-22T08:17:09;36.93;;;9.23;;
4278;SDS011;2153;47.744;10.580;2023-06-22T08:19:37;22.97;;;7.73;;
4278;SDS011;2153;47.744;10.580;2023-06-22T08:22:05;25.17;;;8.40;;
4278;SDS011;2153;47.744;10.580;2023-06-22T08:24:32;28.63;;;8.80;;
4278;SDS011;2153;47.744;10.580;2023-06-22T08:26:58;33.20;;;7.73;;
4278;SDS011;2153;47.744;10.580;2023-06-22T08:29:25;28.03;;;7.73;;
4278;SDS011;2153;47.744;10.580;2023-06-22T08:31:52;21.43;;;8.10;;
4278;SDS011;2153;47.744;10.580;2023-06-22T08:34:18;28.20;;;8.60;;
4278;SDS011;2153;47.744;10.580;2023-06-22T08:36:51;29.17;;;8.57;;
4278;SDS011;2153;47.744;10.580;2023-06-22T08:39:18;33.13;;;9.00;;
4278;SDS011;2153;47.744;10.580;2023-06-22T08:41:45;26.13;;;8.13;;
4278;SDS011;2153;47.744;10.580;2023-06-22T08:44:12;25.03;;;7.20;;
4278;SDS011;2153;47.744;10.580;2023-06-22T08:46:38;34.47;;;8.30;;
4278;SDS011;2153;47.744;10.580;2023-06-22T08:49:06;25.17;;;9.20;;
4278;SDS011;2153;47.744;10.580;2023-06-22T08:51:34;33.83;;;7.80;;
4278;SDS011;2153;47.744;10.580;2023-06-22T08:54:02;23.73;;;8.47;;
4278;SDS011;2153;47.744;10.580;2023-06-22T08:56:29;28.53;;;8.40;;
4278;SDS011;2153;47.744;10.580;2023-06-22T08:58:56;28.10;;;8.63;;
4278;SDS011;2153;47.744;10.580;2023-06-22T09:01:23;27.30;;;9.00;;
4278;SDS011;2153;47.744;10.580;2023-06-22T09:03:50;22.60;;;7.80;;
4278;SDS011;2153;47.744;10.580;2023-06-22T09:06:22;30.67;;;9.27;;
4278;SDS011;2153;47.744;10.580;2023-06-22T09:08:49;26.40;;;8.43;;
4278;SDS011;2153;47.744;10.580;2023-06-22T09:11:17;28.77;;;9.00;;
4278;SDS011;2153;47.744;10.580;2023-06-22T09:13:44;25.95;;;7.90;;
4278;SDS011;2153;47.744;10.580;2023-06-22T09:16:11;31.33;;;8.38;;
4278;SDS011;2153;47.744;10.580;2023-06-22T09:18:37;29.73;;;8.48;;
4278;SDS011;2153;47.744;10.580;2023-06-22T09:21:04;21.33;;;8.93;;
4278;SDS011;2153;47.744;10.580;2023-06-22T09:23:31;31.25;;;8.43;;
4278;SDS011;2153;47.744;10.580;2023-06-22T09:25:57;25.70;;;8.32;;
4278;SDS011;2153;47.744;10.580;2023-06-22T09:28:25;37.47;;;9.00;;
4278;SDS011;2153;47.744;10.580;2023-06-22T09:30:52;28.08;;;8.13;;
4278;SDS011;2153;47.744;10.580;2023-06-22T09:33:23;27.08;;;7.75;;
4278;SDS011;2153;47.744;10.580;2023-06-22T09:35:49;35.78;;;8.20;;
4278;SDS011;2153;47.744;10.580;2023-06-22T09:38:16;25.17;;;7.95;;
4278;SDS011;2153;47.744;10.580;2023-06-22T09:40:43;28.83;;;8.02;;
4278;SDS011;2153;47.744;10.580;2023-06-22T09:43:10;26.15;;;7.65;;
4278;SDS011;2153;47.744;10.580;2023-06-22T09:45:39;27.40;;;7.07;;
4278;SDS011;2153;47.744;10.580;2023-06-22T09:48:05;28.63;;;8.13;;
4278;SDS011;2153;47.744;10.580;2023-06-22T09:50:32;26.25;;;7.93;;
4278;SDS011;2153;47.744;10.580;2023-06-22T09:52:58;27.33;;;7.45;;
4278;SDS011;2153;47.744;10.580;2023-06-22T09:55:25;23.90;;;8.10;;
4278;SDS011;2153;47.744;10.580;2023-06-22T09:57:52;33.05;;;8.30;;
4278;SDS011;2153;47.744;10.580;2023-06-22T10:00:19;29.17;;;8.75;;
4278;SDS011;2153;47.744;10.580;2023-06-22T10:02:48;25.55;;;8.18;;
4278;SDS011;2153;47.744;10.580;2023-06-22T10:05:15;33.05;;;8.65;;
4278;SDS011;2153;47.744;10.580;2023-06-22T10:07:42;26.23;;;7.60;;
4278;SDS011;2153;47.744;10.580;2023-06-22T10:10:09;25.40;;;7.53;;
4278;SDS011;2153;47.744;10.580;2023-06-22T10:12:36;29.77;;;6.68;;
4278;SDS011;2153;47.744;10.580;2023-06-22T10:15:03;24.33;;;7.80;;
4278;SDS011;2153;47.744;10.580;2023-06-22T10:17:30;26.65;;;7.28;;
4278;SDS011;2153;47.744;10.580;2023-06-22T10:19:58;33.92;;;7.75;;
4278;SDS011;2153;47.744;10.580;2023-06-22T10:22:25;27.17;;;6.75;;
4278;SDS011;2153;47.744;10.580;2023-06-22T10:24:52;24.52;;;6.07;;
4278;SDS011;2153;47.744;10.580;2023-06-22T10:27:19;21.55;;;6.57;;
4278;SDS011;2153;47.744;10.580;2023-06-22T10:29:45;25.25;;;7.97;;
4278;SDS011;2153;47.744;10.580;2023-06-22T10:32:12;24.95;;;6.85;;
4278;SDS011;2153;47.744;10.580;2023-06-22T10:34:38;30.55;;;6.53;;
4278;SDS011;2153;47.744;10.580;2023-06-22T10:37:07;34.38;;;6.50;;
4278;SDS011;2153;47.744;10.580;2023-06-22T10:39:33;29.77;;;6.95;;
4278;SDS011;2153;47.744;10.580;2023-06-22T10:42:00;26.17;;;6.43;;
4278;SDS011;2153;47.744;10.580;2023-06-22T10:44:26;22.92;;;6.43;;
4278;SDS011;2153;47.744;10.580;2023-06-22T10:46:53;25.45;;;7.28;;
4278;SDS011;2153;47.744;10.580;2023-06-22T10:49:20;30.65;;;6.72;;
4278;SDS011;2153;47.744;10.580;2023-06-22T10:51:46;38.67;;;6.95;;
4278;SDS011;2153;47.744;10.580;2023-06-22T10:54:14;22.98;;;6.65;;
4278;SDS011;2153;47.744;10.580;2023-06-22T10:56:43;23.48;;;6.43;;
4278;SDS011;2153;47.744;10.580;2023-06-22T10:59:09;33.60;;;8.15;;
4278;SDS011;2153;47.744;10.580;2023-06-22T11:01:36;21.48;;;5.70;;
4278;SDS011;2153;47.744;10.580;2023-06-22T11:04:03;25.92;;;5.93;;
4278;SDS011;2153;47.744;10.580;2023-06-22T11:06:30;34.38;;;6.80;;
4278;SDS011;2153;47.744;10.580;2023-06-22T11:08:56;23.23;;;5.30;;
4278;SDS011;2153;47.744;10.580;2023-06-22T11:11:25;30.80;;;5.93;;
4278;SDS011;2153;47.744;10.580;2023-06-22T11:13:52;25.83;;;5.95;;
4278;SDS011;2153;47.744;10.580;2023-06-22T11:16:18;36.05;;;6.28;;
4278;SDS011;2153;47.744;10.580;2023-06-22T11:18:45;18.85;;;5.80;;
4278;SDS011;2153;47.744;10.580;2023-06-22T11:21:12;29.10;;;6.28;;
4278;SDS011;2153;47.744;10.580;2023-06-22T11:23:38;24.33;;;5.47;;
4278;SDS011;2153;47.744;10.580;2023-06-22T11:26:05;23.52;;;6.60;;
4278;SDS011;2153;47.744;10.580;2023-06-22T11:28:33;27.08;;;5.45;;
4278;SDS011;2153;47.744;10.580;2023-06-22T11:30:59;28.98;;;5.70;;
4278;SDS011;2153;47.744;10.580;2023-06-22T11:33:26;30.23;;;5.70;;
4278;SDS011;2153;47.744;10.580;2023-06-22T11:35:53;24.38;;;5.75;;
4278;SDS011;2153;47.744;10.580;2023-06-22T11:38:21;25.08;;;5.25;;
4278;SDS011;2153;47.744;10.580;2023-06-22T11:40:48;23.02;;;5.93;;
4278;SDS011;2153;47.744;10.580;2023-06-22T11:43:14;31.17;;;5.93;;
4278;SDS011;2153;47.744;10.580;2023-06-22T11:45:42;35.15;;;5.93;;
4278;SDS011;2153;47.744;10.580;2023-06-22T11:48:09;25.23;;;5.57;;
4278;SDS011;2153;47.744;10.580;2023-06-22T11:50:36;20.25;;;5.03;;
4278;SDS011;2153;47.744;10.580;2023-06-22T11:53:02;18.85;;;5.43;;
4278;SDS011;2153;47.744;10.580;2023-06-22T11:55:29;24.13;;;5.85;;
4278;SDS011;2153;47.744;10.580;2023-06-22T11:57:57;23.90;;;4.70;;
4278;SDS011;2153;47.744;10.580;2023-06-22T12:00:27;26.27;;;5.85;;
4278;SDS011;2153;47.744;10.580;2023-06-22T12:02:56;19.48;;;4.45;;
4278;SDS011;2153;47.744;10.580;2023-06-22T12:05:22;28.20;;;6.07;;
4278;SDS011;2153;47.744;10.580;2023-06-22T12:07:49;26.10;;;5.80;;
4278;SDS011;2153;47.744;10.580;2023-06-22T12:10:17;23.95;;;5.63;;
4278;SDS011;2153;47.744;10.580;2023-06-22T12:12:44;25.80;;;6.30;;
4278;SDS011;2153;47.744;10.580;2023-06-22T12:15:10;29.23;;;6.10;;
4278;SDS011;2153;47.744;10.580;2023-06-22T12:17:37;24.17;;;5.35;;
4278;SDS011;2153;47.744;10.580;2023-06-22T12:20:06;26.83;;;4.95;;
4278;SDS011;2153;47.744;10.580;2023-06-22T12:22:34;23.10;;;5.07;;
4278;SDS011;2153;47.744;10.580;2023-06-22T12:25:02;32.03;;;5.50;;
4278;SDS011;2153;47.744;10.580;2023-06-22T12:27:29;26.42;;;5.22;;
4278;SDS011;2153;47.744;10.580;2023-06-22T12:29:56;28.90;;;4.68;;
4278;SDS011;2153;47.744;10.580;2023-06-22T12:32:23;24.17;;;5.65;;
4278;SDS011;2153;47.744;10.580;2023-06-22T12:34:50;26.20;;;4.50;;
4278;SDS011;2153;47.744;10.580;2023-06-22T12:37:18;24.10;;;4.68;;
4278;SDS011;2153;47.744;10.580;2023-06-22T12:39:45;27.30;;;5.05;;
4278;SDS011;2153;47.744;10.580;2023-06-22T12:42:12;25.33;;;4.72;;
4278;SDS011;2153;47.744;10.580;2023-06-22T12:44:39;31.73;;;4.80;;
4278;SDS011;2153;47.744;10.580;2023-06-22T12:47:06;33.75;;;5.22;;
4278;SDS011;2153;47.744;10.580;2023-06-22T12:49:33;26.02;;;4.80;;
4278;SDS011;2153;47.744;10.580;2023-06-22T12:52:00;32.83;;;4.72;;
4278;SDS011;2153;47.744;10.580;2023-06-22T12:54:28;25.08;;;5.78;;
4278;SDS011;2153;47.744;10.580;2023-06-22T12:56:55;55.03;;;6.22;;
4278;SDS011;2153;47.744;10.580;2023-06-22T12:59:22;24.75;;;5.63;;
4278;SDS011;2153;47.744;10.580;2023-06-22T13:01:49;41.83;;;5.93;;
4278;SDS011;2153;47.744;10.580;2023-06-22T13:04:15;29.08;;;5.22;;
4278;SDS011;2153;47.744;10.580;2023-06-22T13:06:43;41.05;;;4.45;;
4278;SDS011;2153;47.744;10.580;2023-06-22T13:09:12;27.67;;;4.50;;
4278;SDS011;2153;47.744;10.580;2023-06-22T13:11:41;22.40;;;4.68;;
4278;SDS011;2153;47.744;10.580;2023-06-22T13:14:07;26.05;;;4.50;;
4278;SDS011;2153;47.744;10.580;2023-06-22T13:16:34;24.73;;;4.78;;
4278;SDS011;2153;47.744;10.580;2023-06-22T13:19:01;28.17;;;5.40;;
4278;SDS011;2153;47.744;10.580;2023-06-22T13:21:27;23.30;;;4.75;;
4278;SDS011;2153;47.744;10.580;2023-06-22T13:23:54;26.20;;;5.07;;
4278;SDS011;2153;47.744;10.580;2023-06-22T13:26:21;29.48;;;4.68;;
4278;SDS011;2153;47.744;10.580;2023-06-22T13:28:49;33.55;;;5.57;;
4278;SDS011;2153;47.744;10.580;2023-06-22T13:31:16;19.55;;;5.53;;
4278;SDS011;2153;47.744;10.580;2023-06-22T13:33:42;26.40;;;4.78;;
4278;SDS011;2153;47.744;10.580;2023-06-22T13:36:12;32.00;;;4.50;;
4278;SDS011;2153;47.744;10.580;2023-06-22T13:38:39;25.58;;;4.57;;
4278;SDS011;2153;47.744;10.580;2023-06-22T13:41:06;24.83;;;5.30;;
4278;SDS011;2153;47.744;10.580;2023-06-22T13:43:32;22.33;;;5.40;;
4278;SDS011;2153;47.744;10.580;2023-06-22T13:46:00;18.25;;;4.40;;
4278;SDS011;2153;47.744;10.580;2023-06-22T13:48:27;30.50;;;4.47;;
4278;SDS011;2153;47.744;10.580;2023-06-22T13:50:54;20.73;;;4.72;;
4278;SDS011;2153;47.744;10.580;2023-06-22T13:53:20;23.17;;;4.47;;
4278;SDS011;2153;47.744;10.580;2023-06-22T13:55:47;27.95;;;4.80;;
4278;SDS011;2153;47.744;10.580;2023-06-22T13:58:14;27.67;;;4.80;;
4278;SDS011;2153;47.744;10.580;2023-06-22T14:00:40;27.95;;;5.10;;
4278;SDS011;2153;47.744;10.580;2023-06-22T14:03:08;24.83;;;4.70;;
4278;SDS011;2153;47.744;10.580;2023-06-22T14:05:35;35.13;;;5.35;;
4278;SDS011;2153;47.744;10.580;2023-06-22T14:08:02;24.02;;;4.97;;
4278;SDS011;2153;47.744;10.580;2023-06-22T14:10:28;18.58;;;5.22;;
4278;SDS011;2153;47.744;10.580;2023-06-22T14:12:55;21.48;;;6.35;;
4278;SDS011;2153;47.744;10.580;2023-06-22T14:15:21;25.90;;;4.93;;
4278;SDS011;2153;47.744;10.580;2023-06-22T14:17:48;27.50;;;5.45;;
4278;SDS011;2153;47.744;10.580;2023-06-22T14:20:16;23.15;;;5.13;;
4278;SDS011;2153;47.744;10.580;2023-06-22T14:22:43;19.85;;;4.40;;
4278;SDS011;2153;47.744;10.580;2023-06-22T14:25:09;28.02;;;5.10;;
4278;SDS011;2153;47.744;10.580;2023-06-22T14:27:36;23.80;;;4.28;;
4278;SDS011;2153;47.744;10.580;2023-06-22T14:30:03;31.05;;;4.85;;
4278;SDS011;2153;47.744;10.580;2023-06-22T14:32:30;29.10;;;4.43;;
4278;SDS011;2153;47.744;10.580;2023-06-22T14:34:57;22.63;;;6.25;;
4278;SDS011;2153;47.744;10.580;2023-06-22T14:37:25;21.17;;;4.85;;
4278;SDS011;2153;47.744;10.580;2023-06-22T14:39:51;25.23;;;4.45;;
4278;SDS011;2153;47.744;10.580;2023-06-22T14:42:18;23.50;;;4.80;;
4278;SDS011;2153;47.744;10.580;2023-06-22T14:44:44;26.15;;;5.55;;
4278;SDS011;2153;47.744;10.580;2023-06-22T14:47:11;20.63;;;4.03;;